Skip to main content
NASDAQ:LBRDA

Liberty Broadband Institutional Ownership

$161.99
+3.80 (+2.40 %)
(As of 05/14/2021 12:00 AM ET)
Add
Compare
Today's Range
$158.99
$162.78
50-Day Range
$143.10
$161.65
52-Week Range
$116.60
$163.24
Volume81,456 shs
Average Volume101,091 shs
Market Capitalization$31.64 billion
P/E Ratio131.70
Dividend YieldN/A
Beta1.08

Institutional Ownership

Institutional Ownership Changes (13F Filings) for Liberty Broadband (NASDAQ:LBRDA)

Institutional Ownership Percentage: 12.08%

Institutional Buying and Selling by Quarter


Liberty Broadband (NASDAQ LBRDA) Institutional Buying and Selling

Reporting DateHedge FundShares HeldMarket Value% of PortfolioQuarterly Change in SharesOwnership in Company
5/14/2021Brown Advisory Inc.108,853$15.80M0.0%+33.1%0.056%
5/14/2021Gamco Investors INC. ET AL64,562$9.37M0.1%-2.4%0.033%
5/14/2021Gabelli Funds LLC84,500$12.27M0.1%-0.6%0.043%
5/14/2021Caisse DE Depot ET Placement DU Quebec18,780$2.73M0.0%+1,300.4%0.010%
5/14/2021Heron Bay Capital Management10,840$1.57M0.9%-5.5%0.006%
5/14/2021Pinebridge Investments L.P.13,995$2.03M0.0%N/A0.007%
5/14/2021Markston International LLC18,289$2.66M0.3%-1.2%0.009%
5/14/2021Nomura Asset Management Co. Ltd.4,390$0.64M0.0%+4.5%0.002%
5/14/2021Public Employees Retirement System of Ohio13,139$1.91M0.0%+8.1%0.007%
5/14/2021Occudo Quantitative Strategies LP2,949$0.43M0.1%+16.1%0.002%
5/14/2021Dimensional Fund Advisors LP173,134$25.08M0.0%-4.2%0.089%
5/14/2021First Manhattan Co.96,835$14.06M0.1%+0.4%0.050%
5/14/2021Vident Investment Advisory LLC2,658$0.39M0.0%+2.6%0.001%
5/14/2021Cowen Investment Management LLC16,200$2.35M0.9%N/A0.008%
5/14/2021CIBC Asset Management Inc8,885$1.29M0.0%+30.7%0.005%
5/14/2021TD Asset Management Inc.5,928$0.86M0.0%+38.2%0.003%
5/14/2021Delta Investment Management LLC4,021$0.58M0.2%+86.9%0.002%
5/14/2021UBS Asset Management Americas Inc.84,438$12.26M0.0%+11.6%0.043%
5/14/2021Stifel Financial Corp2,957$0.43M0.0%+3.7%0.002%
5/14/2021Dynamic Technology Lab Private Ltd2,050$0.30M0.0%N/A0.001%
5/14/2021Credit Suisse AG470,315$68.27M0.0%-2.4%0.241%
5/14/2021Gulf International Bank UK Ltd4,840$0.70M0.0%-21.7%0.002%
5/13/2021Clearbridge Investments LLC1,354,610$196.62M0.1%+0.9%0.694%
5/13/2021Franklin Resources Inc.766,738$111.29M0.0%+0.4%0.393%
5/13/2021SG Americas Securities LLC10,701$1.55M0.0%N/A0.005%
5/13/2021AlphaCrest Capital Management LLC10,026$1.46M0.1%+269.1%0.005%
5/13/2021Barclays PLC13,847$2.01M0.0%-51.9%0.007%
5/13/2021Renaissance Technologies LLC25,200$3.66M0.0%-38.7%0.013%
5/13/2021Weitz Investment Management Inc.153,750$22.32M1.0%+15.0%0.079%
5/13/2021Neuberger Berman Group LLC4,002$0.57M0.0%-83.7%0.002%
5/13/2021Bank of New York Mellon Corp78,172$11.35M0.0%-6.9%0.040%
5/13/2021Citigroup Inc.18,005$2.61M0.0%-27.7%0.009%
5/13/2021Blair William & Co. IL1,306$0.19M0.0%+13.3%0.001%
5/13/2021Bank of Montreal Can645$93K0.0%-69.4%0.000%
5/13/2021Dai Ichi Life Insurance Company Ltd10,999$1.60M0.0%N/A0.006%
5/13/2021Aviva PLC8,277$1.20M0.0%-51.1%0.004%
5/13/2021Banco Bilbao Vizcaya Argentaria S.A.19,247$2.79M0.1%+30.3%0.010%
5/13/2021Allianz Asset Management GmbH15,856$2.30M0.0%+24.8%0.008%
5/12/2021Northern Trust Corp238,875$34.67M0.0%-0.3%0.122%
5/12/2021Ergoteles LLC5,000$0.73M0.0%+516.5%0.003%
5/12/2021Cerity Partners LLC2,087$0.30M0.0%-28.2%0.001%
5/12/2021Geode Capital Management LLC172,017$24.89M0.0%+1.6%0.088%
5/12/2021Quadrant Capital Group LLC512$74K0.0%+27.4%0.000%
5/12/2021Mint Tower Capital Management B.V.9,472$1.38M0.1%+847.2%0.005%
5/12/2021JPMorgan Chase & Co.10,417$1.51M0.0%-21.2%0.005%
5/12/2021Mitsubishi UFJ Trust & Banking Corp14,618$2.12M0.0%-16.5%0.007%
5/12/2021UBS Group AG345,485$50.15M0.0%-39.8%0.177%
5/11/2021Mid Atlantic Financial Management Inc. ADV1,443$0.21M0.0%-17.0%0.001%
5/11/2021Teacher Retirement System of Texas2,819$0.41M0.0%+22.6%0.001%
5/11/2021Horizon Kinetics Asset Management LLC53,759$7.80M0.2%-11.8%0.028%
5/11/2021Nissay Asset Management Corp Japan ADV2,738$0.40M0.0%+12.5%0.001%
5/11/2021CIBC World Markets Inc.1,460$0.21M0.0%N/A0.001%
5/11/2021New York State Common Retirement Fund34,000$4.94M0.0%-9.3%0.017%
5/11/2021Waldron Private Wealth LLC2,117$0.31M0.0%-4.1%0.001%
5/11/2021Private Management Group Inc.928$0.14M0.0%N/A0.000%
5/10/2021Russell Investments Group Ltd.5,428$0.79M0.0%+155.0%0.003%
5/10/2021Maryland State Retirement & Pension System1,891$0.27M0.0%N/A0.001%
5/10/2021AMI Investment Management Inc.40,971$5.95M2.5%+1.4%0.021%
5/10/2021Wintrust Investments LLC3,650$0.53M0.1%N/A0.002%
5/10/2021State Board of Administration of Florida Retirement System51,237$7.44M0.0%+6.1%0.026%
5/10/2021Principal Financial Group Inc.928,992$134.84M0.1%+0.2%0.476%
5/10/2021Hosking Partners LLP3,911$0.57M0.0%-4.2%0.002%
5/10/2021Shell Asset Management Co.317$46K0.0%+25.3%0.000%
5/10/2021GSA Capital Partners LLP3,467$0.50M0.1%+60.5%0.002%
5/7/2021BlackRock Inc.1,244,501$180.64M0.0%+7.9%0.637%
5/7/2021BNP Paribas Arbitrage SA97,852$14.20M0.0%-2.9%0.050%
5/7/2021Swiss National Bank96,800$14.05M0.0%+1.8%0.050%
5/7/2021The PNC Financial Services Group Inc.8,920$1.29M0.0%+9.4%0.005%
5/6/2021Arizona State Retirement System7,093$1.03M0.0%-2.4%0.004%
5/6/2021Rhumbline Advisers33,521$4.87M0.0%-2.6%0.017%
5/6/2021Allred Capital Management LLC172$25K0.0%N/A0.000%
5/6/2021Mitsubishi UFJ Kokusai Asset Management Co. Ltd.5,780$0.84M0.0%+29.3%0.003%
5/6/2021Standard Life Aberdeen plc2,484$0.36M0.0%+3.2%0.001%
5/6/2021Kovitz Investment Group Partners LLC13,092$1.90M0.0%-9.4%0.007%
5/5/2021Seizert Capital Partners LLC191,072$27.73M1.4%-4.1%0.098%
5/5/2021IFM Investors Pty Ltd4,808$0.70M0.0%+113.6%0.002%
5/4/2021Envestnet Asset Management Inc.10,174$1.48M0.0%+26.2%0.005%
5/4/2021Harbor Advisors LLC3,669$0.53M0.1%-49.9%0.002%
5/4/2021Victory Capital Management Inc.381,959$55.44M0.1%-0.6%0.196%
5/3/2021The Manufacturers Life Insurance Company 254,737$36.98M0.0%+28.2%0.130%
5/3/2021Sycale Advisors NY LLC132,949$19.30M10.7%N/A0.068%
4/30/2021Ground Swell Capital LLC2,868$0.42M1.3%N/A0.001%
4/30/2021Value Partners Investments Inc.24,200$3.51M0.3%-15.7%0.012%
4/30/2021Sumitomo Mitsui Trust Holdings Inc.84,316$12.24M0.0%-0.3%0.043%
4/30/2021BRITISH COLUMBIA INVESTMENT MANAGEMENT Corp4,128$0.60M0.0%-4.6%0.002%
4/29/2021We Are One Seven LLC2,558$0.37M0.1%-4.4%0.001%
4/28/2021NN Investment Partners Holdings N.V.9,232$1.34M0.0%-38.1%0.005%
4/28/2021Newfound Research LLC436$63K0.1%-47.0%0.000%
4/28/2021Unison Asset Management LLC13,652$1.98M1.8%+36.2%0.007%
4/28/2021DekaBank Deutsche Girozentrale3,849$0.57M0.0%+77.9%0.002%
4/28/2021Comerica Bank2,937$0.46M0.0%+2.8%0.002%
4/27/2021Janney Montgomery Scott LLC3,570$0.52M0.0%+3.4%0.002%
4/27/2021State of New Jersey Common Pension Fund D66,253$9.62M0.0%+47.2%0.034%
4/26/2021KBC Group NV5,438$0.79M0.0%-61.1%0.003%
4/23/2021Parallel Advisors LLC266$39K0.0%-40.6%0.000%
4/23/2021Strs Ohio11,747$1.71M0.0%-4.2%0.006%
4/23/2021S&CO Inc.89,239$12.95M1.1%-0.2%0.046%
4/22/2021YHB Investment Advisors Inc.8,381$1.26M0.1%-6.2%0.004%
4/13/2021Norman Fields Gottscho Capital Management LLC17,237$2.50M1.1%-25.5%0.009%
4/13/2021Royal London Asset Management Ltd.10,131$1.47M0.0%+2.6%0.005%
(Data available from 1/1/2016 forward)

This page was last updated on 5/16/2021 by MarketBeat.com Staff
MarketBeat - Stock Market News and Research Tools logo

MarketBeat empowers individual investors to make better trading decisions by providing real-time financial data and objective market analysis. Whether you’re looking for analyst ratings, corporate buybacks, dividends, earnings, economic reports, financials, insider trades, IPOs, SEC filings or stock splits, MarketBeat has the objective information you need to analyze any stock. Learn more about MarketBeat.

MarketBeat is accredited by the Better Business Bureau

© American Consumer News, LLC dba MarketBeat® 2010-2021. All rights reserved.
326 E 8th St #105, Sioux Falls, SD 57103 | U.S. Based Support Team at [email protected] | (844) 978-6257
MarketBeat does not provide personalized financial advice and does not issue recommendations or offers to buy stock or sell any security.

Our Accessibility Statement | Terms of Service | Do Not Sell My Information

© 2021 Market data provided is at least 10-minutes delayed and hosted by Barchart Solutions. Information is provided 'as-is' and solely for informational purposes, not for trading purposes or advice, and is delayed. To see all exchange delays and terms of use please see disclaimer. Fundamental company data provided by Zacks Investment Research. As a bonus to opt-ing into our email newsletters, you will also get a free subscription to the Liberty Through Wealth e-newsletter. You can opt out at any time.